createdAt,value
2023-03-29T00:00:06.075Z,0
2023-03-29T00:01:07.130Z,0
2023-03-29T00:02:08.127Z,0
2023-03-29T00:03:09.261Z,0
2023-03-29T00:04:10.374Z,0
2023-03-29T00:05:11.101Z,0
2023-03-29T00:06:12.044Z,0
2023-03-29T00:07:16.094Z,0
2023-03-29T00:08:17.675Z,0
2023-03-29T00:09:19.261Z,0
2023-03-29T00:10:20.042Z,0
2023-03-29T00:11:21.054Z,0
2023-03-29T00:12:22.007Z,0
2023-03-29T00:13:23.132Z,0
2023-03-29T00:14:24.133Z,0
2023-03-29T00:15:25.184Z,0
2023-03-29T00:16:26.173Z,0
2023-03-29T00:17:27.130Z,0
2023-03-29T00:18:28.158Z,0
2023-03-29T00:19:29.112Z,0
2023-03-29T00:20:30.122Z,0
2023-03-29T00:21:31.131Z,0
2023-03-29T00:22:32.118Z,0
2023-03-29T00:23:33.092Z,0
2023-03-29T00:24:34.185Z,0
2023-03-29T00:25:35.250Z,0
2023-03-29T00:26:36.092Z,0
2023-03-29T00:27:37.098Z,0
2023-03-29T00:28:38.053Z,0
2023-03-29T00:29:39.139Z,0
2023-03-29T00:30:40.090Z,0
2023-03-29T00:31:41.199Z,0
2023-03-29T00:32:42.191Z,0
2023-03-29T00:33:43.143Z,0
2023-03-29T00:34:44.153Z,0
2023-03-29T00:35:45.279Z,0
2023-03-29T00:36:46.060Z,0
2023-03-29T00:37:46.978Z,0
2023-03-29T00:38:48.042Z,0
2023-03-29T00:39:49.242Z,0
2023-03-29T00:40:50.279Z,0
2023-03-29T00:41:51.121Z,0
2023-03-29T00:42:52.072Z,0
2023-03-29T00:43:53.150Z,0
2023-03-29T00:44:54.165Z,0
2023-03-29T00:45:54.994Z,0
2023-03-29T00:46:56.091Z,0
2023-03-29T00:47:57.308Z,0
2023-03-29T00:48:58.139Z,0
2023-03-29T00:49:59.224Z,0
2023-03-29T00:51:00.335Z,0
2023-03-29T00:52:01.118Z,0
2023-03-29T00:53:02.112Z,0
2023-03-29T00:54:03.111Z,0
2023-03-29T00:55:04.188Z,0
2023-03-29T00:56:05.033Z,0
2023-03-29T00:57:06.106Z,0
2023-03-29T00:58:07.122Z,0
2023-03-29T00:59:08.120Z,0
2023-03-29T01:00:09.141Z,0
2023-03-29T01:01:10.119Z,0
2023-03-29T01:02:11.160Z,0
2023-03-29T01:03:12.164Z,0
2023-03-29T01:04:13.235Z,0
2023-03-29T01:05:14.114Z,0
2023-03-29T01:06:15.073Z,0
2023-03-29T01:07:16.139Z,0
2023-03-29T01:08:17.115Z,0
2023-03-29T01:09:18.154Z,0
2023-03-29T01:10:19.220Z,0
2023-03-29T01:11:20.315Z,0
2023-03-29T01:12:21.236Z,0
2023-03-29T01:13:22.175Z,0
2023-03-29T01:14:23.223Z,0
2023-03-29T01:15:24.175Z,0
2023-03-29T01:16:25.211Z,0
2023-03-29T01:17:26.235Z,0
2023-03-29T01:18:27.170Z,0
2023-03-29T01:19:28.255Z,0
2023-03-29T01:20:29.249Z,0
2023-03-29T01:21:30.237Z,0
2023-03-29T01:22:31.176Z,0
2023-03-29T01:23:32.196Z,0
2023-03-29T01:24:33.117Z,0
2023-03-29T01:25:34.091Z,0
2023-03-29T01:26:35.214Z,0
2023-03-29T01:27:36.256Z,0
2023-03-29T01:28:37.095Z,0
2023-03-29T01:29:38.116Z,0
2023-03-29T01:30:39.096Z,0
2023-03-29T01:31:40.173Z,0
2023-03-29T01:32:41.191Z,0
2023-03-29T01:33:42.059Z,0
2023-03-29T01:34:43.096Z,0
2023-03-29T01:35:44.098Z,0
2023-03-29T01:36:45.159Z,0
2023-03-29T01:37:46.116Z,0
2023-03-29T01:38:47.075Z,0
2023-03-29T01:39:48.100Z,0
2023-03-29T01:40:49.125Z,0
2023-03-29T01:41:50.154Z,0
2023-03-29T01:42:51.055Z,0
2023-03-29T01:43:52.131Z,0
2023-03-29T01:44:53.079Z,0
2023-03-29T01:45:54.120Z,0
2023-03-29T01:46:55.080Z,0
2023-03-29T01:47:56.179Z,0
2023-03-29T01:48:57.201Z,0
2023-03-29T01:49:58.073Z,0
2023-03-29T01:50:59.185Z,0
2023-03-29T01:52:00.157Z,0
2023-03-29T01:53:01.133Z,0
2023-03-29T01:54:02.256Z,0
2023-03-29T01:55:03.054Z,0
2023-03-29T01:56:04.091Z,0
2023-03-29T01:57:05.171Z,0
2023-03-29T01:58:06.112Z,0
2023-03-29T01:59:07.174Z,0
2023-03-29T02:00:08.118Z,0
2023-03-29T02:01:09.131Z,0
2023-03-29T02:02:10.102Z,0
2023-03-29T02:03:11.273Z,0
2023-03-29T02:04:12.199Z,0
2023-03-29T02:05:13.121Z,0
2023-03-29T02:06:14.136Z,0
2023-03-29T02:07:15.236Z,0
2023-03-29T02:08:16.160Z,0
2023-03-29T02:09:17.092Z,0
2023-03-29T02:10:18.230Z,0
2023-03-29T02:11:19.239Z,0
2023-03-29T02:12:20.114Z,0
2023-03-29T02:13:21.132Z,0
2023-03-29T02:14:22.087Z,0
2023-03-29T02:15:23.155Z,0
2023-03-29T02:16:24.134Z,0
2023-03-29T02:17:25.209Z,0
2023-03-29T02:18:26.059Z,0
2023-03-29T02:19:27.193Z,0
2023-03-29T02:20:28.176Z,0
2023-03-29T02:21:29.234Z,0
2023-03-29T02:22:30.201Z,0
2023-03-29T02:23:31.154Z,0
2023-03-29T02:24:32.095Z,0
2023-03-29T02:25:33.124Z,0
2023-03-29T02:26:34.085Z,0
2023-03-29T02:27:35.233Z,0
2023-03-29T02:28:36.151Z,0
2023-03-29T02:29:37.189Z,0
2023-03-29T02:30:38.122Z,0
2023-03-29T02:31:39.196Z,0
2023-03-29T02:32:40.185Z,0
2023-03-29T02:33:41.095Z,0
2023-03-29T02:34:42.202Z,0
2023-03-29T02:35:43.118Z,0
2023-03-29T02:36:44.121Z,0
2023-03-29T02:37:45.792Z,0
2023-03-29T02:38:47.193Z,0
2023-03-29T02:39:48.114Z,0
2023-03-29T02:40:49.100Z,0
2023-03-29T02:41:50.095Z,0
2023-03-29T02:42:51.135Z,0
2023-03-29T02:43:52.153Z,0
2023-03-29T02:44:53.132Z,0
2023-03-29T02:45:54.113Z,0
2023-03-29T02:46:55.158Z,0
2023-03-29T02:47:56.065Z,0
2023-03-29T02:48:57.222Z,0
2023-03-29T02:49:58.236Z,0
2023-03-29T02:50:59.341Z,0
2023-03-29T02:52:00.118Z,0
2023-03-29T02:53:01.092Z,0
2023-03-29T02:54:02.121Z,0
2023-03-29T02:55:03.184Z,0
2023-03-29T02:56:04.118Z,0
2023-03-29T02:57:05.354Z,0
2023-03-29T02:58:06.198Z,0
2023-03-29T02:59:07.139Z,0
2023-03-29T03:00:08.283Z,0
2023-03-29T03:01:09.181Z,0
2023-03-29T03:02:10.180Z,0
2023-03-29T03:03:11.390Z,0
2023-03-29T03:04:12.215Z,0
2023-03-29T03:05:13.223Z,0
2023-03-29T03:06:14.226Z,0
2023-03-29T03:07:15.286Z,0
2023-03-29T03:08:16.288Z,0
2023-03-29T03:09:17.115Z,0
2023-03-29T03:10:18.168Z,0
2023-03-29T03:11:19.198Z,0
2023-03-29T03:12:20.206Z,0
2023-03-29T03:13:21.208Z,0
2023-03-29T03:14:22.160Z,0
2023-03-29T03:15:23.227Z,0
2023-03-29T03:16:24.711Z,0
2023-03-29T03:17:26.374Z,0
2023-03-29T03:18:27.098Z,0
2023-03-29T03:19:28.101Z,0
2023-03-29T03:20:29.276Z,0
2023-03-29T03:21:30.298Z,0
2023-03-29T03:22:31.199Z,0
2023-03-29T03:23:32.140Z,0
2023-03-29T03:24:33.156Z,0
2023-03-29T03:25:34.154Z,0
2023-03-29T03:26:35.162Z,0
2023-03-29T03:27:36.205Z,0
2023-03-29T03:28:37.171Z,0
2023-03-29T03:29:38.181Z,0
2023-03-29T03:30:39.165Z,0
2023-03-29T03:31:40.228Z,0
2023-03-29T03:32:41.225Z,0
2023-03-29T03:33:42.412Z,0
2023-03-29T03:34:43.206Z,0
2023-03-29T03:35:44.237Z,0
2023-03-29T03:36:45.270Z,0
2023-03-29T03:37:46.212Z,0
2023-03-29T03:38:47.126Z,0
2023-03-29T03:39:48.242Z,0
2023-03-29T03:40:49.172Z,0
2023-03-29T03:41:50.142Z,0
2023-03-29T03:42:51.099Z,0
2023-03-29T03:43:52.116Z,0
2023-03-29T03:44:53.132Z,0
2023-03-29T03:45:54.319Z,0
2023-03-29T03:46:55.234Z,0
2023-03-29T03:47:56.208Z,0
2023-03-29T03:48:57.154Z,0
2023-03-29T03:49:58.179Z,0
2023-03-29T03:50:59.488Z,0
2023-03-29T03:52:00.153Z,0
2023-03-29T03:53:01.114Z,0
2023-03-29T03:54:02.221Z,0
2023-03-29T03:55:03.302Z,0
2023-03-29T03:56:04.089Z,0
2023-03-29T03:57:05.290Z,0
2023-03-29T03:58:06.226Z,0
2023-03-29T03:59:07.328Z,0
2023-03-29T04:00:08.292Z,0
2023-03-29T04:01:09.232Z,0
2023-03-29T04:02:10.252Z,0
2023-03-29T04:03:11.277Z,0
2023-03-29T04:04:12.200Z,0
2023-03-29T04:05:13.163Z,0
2023-03-29T04:06:14.180Z,0
2023-03-29T04:07:15.154Z,0
2023-03-29T04:08:16.200Z,0
2023-03-29T04:09:17.190Z,0
2023-03-29T04:10:18.195Z,0
2023-03-29T04:11:19.212Z,0
2023-03-29T04:12:20.216Z,0
2023-03-29T04:13:21.322Z,0
2023-03-29T04:14:22.180Z,0
2023-03-29T04:15:23.169Z,0
2023-03-29T04:16:24.276Z,0
2023-03-29T04:17:25.270Z,0
2023-03-29T04:18:26.282Z,0
2023-03-29T04:19:27.228Z,0
2023-03-29T04:20:28.155Z,0
2023-03-29T04:21:29.138Z,0
2023-03-29T04:22:30.155Z,0
2023-03-29T04:23:31.161Z,0
2023-03-29T04:24:32.173Z,0
2023-03-29T04:25:33.200Z,0
2023-03-29T04:26:34.156Z,0
2023-03-29T04:27:35.314Z,0
2023-03-29T04:28:36.161Z,0
2023-03-29T04:29:37.207Z,0
2023-03-29T04:30:38.356Z,0
2023-03-29T04:31:39.309Z,0
2023-03-29T04:32:40.236Z,0
2023-03-29T04:33:41.156Z,0
2023-03-29T04:34:42.153Z,0
2023-03-29T04:35:43.205Z,0
2023-03-29T04:36:44.254Z,0
2023-03-29T04:37:45.274Z,0
2023-03-29T04:38:47.861Z,0
2023-03-29T04:39:47.177Z,0
2023-03-29T04:40:48.154Z,0
2023-03-29T04:41:49.174Z,0
2023-03-29T04:42:50.217Z,0
2023-03-29T04:43:51.206Z,0
2023-03-29T04:44:52.256Z,0
2023-03-29T04:45:53.272Z,0
2023-03-29T04:46:54.304Z,0
2023-03-29T04:47:55.236Z,0
2023-03-29T04:48:56.222Z,0
2023-03-29T04:49:57.305Z,0
2023-03-29T04:50:58.186Z,0
2023-03-29T04:51:59.282Z,0
2023-03-29T04:53:00.334Z,0
2023-03-29T04:54:01.089Z,0
2023-03-29T04:55:02.306Z,0
2023-03-29T04:56:03.296Z,0
2023-03-29T04:57:04.255Z,0
2023-03-29T04:58:05.198Z,0
2023-03-29T04:59:06.227Z,0
2023-03-29T05:00:07.293Z,0
2023-03-29T05:01:08.259Z,0
2023-03-29T05:02:09.313Z,0
2023-03-29T05:03:10.252Z,0
2023-03-29T05:04:12.711Z,0
2023-03-29T05:05:12.243Z,0
2023-03-29T05:06:13.239Z,0
2023-03-29T05:07:14.197Z,0
2023-03-29T05:08:15.276Z,0
2023-03-29T05:09:16.334Z,0
2023-03-29T05:10:17.324Z,0
2023-03-29T05:11:18.356Z,0
2023-03-29T05:12:19.351Z,0
2023-03-29T05:13:20.312Z,0
2023-03-29T05:14:21.230Z,0
2023-03-29T05:15:22.255Z,0
2023-03-29T05:16:23.415Z,0
2023-03-29T05:17:24.260Z,0
2023-03-29T05:18:25.207Z,0
2023-03-29T05:19:26.339Z,0
2023-03-29T05:20:27.459Z,0
2023-03-29T05:21:28.223Z,0
2023-03-29T05:22:29.206Z,0
2023-03-29T05:23:30.197Z,0
2023-03-29T05:24:31.374Z,0
2023-03-29T05:25:32.357Z,0
2023-03-29T05:26:33.333Z,0
2023-03-29T05:27:34.215Z,0
2023-03-29T05:28:35.260Z,0
2023-03-29T05:29:36.359Z,0
2023-03-29T05:30:37.325Z,0
2023-03-29T05:31:38.456Z,0
2023-03-29T05:32:39.345Z,0
2023-03-29T05:33:40.278Z,0
2023-03-29T05:34:41.237Z,0
2023-03-29T05:35:42.271Z,0
2023-03-29T05:36:43.332Z,0
2023-03-29T05:37:44.332Z,0
2023-03-29T05:38:45.353Z,0
2023-03-29T05:39:46.309Z,0
2023-03-29T05:40:47.200Z,0
2023-03-29T05:41:48.434Z,0
2023-03-29T05:42:49.138Z,0
2023-03-29T05:43:50.372Z,0
2023-03-29T05:44:53.411Z,0
2023-03-29T05:45:52.301Z,0
2023-03-29T05:46:53.189Z,0
2023-03-29T05:47:54.260Z,0
2023-03-29T05:48:55.254Z,0
2023-03-29T05:49:56.217Z,0
2023-03-29T05:50:57.253Z,0
2023-03-29T05:51:58.256Z,0
2023-03-29T05:52:59.171Z,0
2023-03-29T05:54:00.313Z,0
2023-03-29T05:55:01.330Z,0
2023-03-29T05:56:02.192Z,0
2023-03-29T05:57:03.224Z,0
2023-03-29T05:58:04.232Z,0
2023-03-29T05:59:05.274Z,0
2023-03-29T06:00:06.245Z,0
2023-03-29T06:01:07.236Z,0
2023-03-29T06:02:08.233Z,0
2023-03-29T06:03:17.834Z,0
2023-03-29T06:04:10.327Z,0
2023-03-29T06:05:11.261Z,0
2023-03-29T06:06:12.196Z,0
2023-03-29T06:07:13.298Z,0
2023-03-29T06:08:14.259Z,0
2023-03-29T06:09:15.271Z,0
2023-03-29T06:10:16.245Z,0
2023-03-29T06:11:17.311Z,0
2023-03-29T06:12:18.373Z,0
2023-03-29T06:13:19.287Z,0
2023-03-29T06:14:20.342Z,0
2023-03-29T06:15:21.307Z,0
2023-03-29T06:16:22.269Z,0
2023-03-29T06:17:23.273Z,0
2023-03-29T06:18:24.276Z,0
2023-03-29T06:19:25.235Z,0
2023-03-29T06:20:26.241Z,0
2023-03-29T06:21:27.256Z,0.11
2023-03-29T06:22:28.229Z,0.51
2023-03-29T06:23:29.289Z,0
2023-03-29T06:24:30.254Z,0
2023-03-29T06:25:31.262Z,0
2023-03-29T06:26:32.273Z,0
2023-03-29T06:27:33.274Z,0
2023-03-29T06:28:34.258Z,0
2023-03-29T06:29:35.197Z,0
2023-03-29T06:30:36.345Z,0
2023-03-29T06:31:37.394Z,0
2023-03-29T06:32:38.277Z,0
2023-03-29T06:33:39.304Z,0
2023-03-29T06:34:40.256Z,0
2023-03-29T06:35:41.211Z,0
2023-03-29T06:36:42.397Z,0
2023-03-29T06:37:43.260Z,0
2023-03-29T06:38:44.258Z,0
2023-03-29T06:39:45.334Z,0
2023-03-29T06:40:46.228Z,0
2023-03-29T06:41:47.359Z,0
2023-03-29T06:42:48.201Z,0
2023-03-29T06:43:49.256Z,0
2023-03-29T06:44:50.241Z,0
2023-03-29T06:45:51.227Z,0
2023-03-29T06:46:52.306Z,0
2023-03-29T06:47:53.478Z,0
2023-03-29T06:48:54.417Z,0
2023-03-29T06:49:55.259Z,0
2023-03-29T06:50:56.321Z,0
2023-03-29T06:51:57.321Z,0
2023-03-29T06:52:58.296Z,0
2023-03-29T06:53:59.421Z,0
2023-03-29T06:55:00.221Z,0
2023-03-29T06:56:01.299Z,0
2023-03-29T06:57:02.515Z,0
2023-03-29T06:58:03.461Z,0
2023-03-29T06:59:04.613Z,0
2023-03-29T07:00:05.327Z,0
2023-03-29T07:01:06.378Z,0
2023-03-29T07:02:07.263Z,0
2023-03-29T07:03:08.351Z,0
2023-03-29T07:04:09.769Z,0
2023-03-29T07:05:11.366Z,0
2023-03-29T07:06:12.266Z,0
2023-03-29T07:07:13.277Z,0
2023-03-29T07:08:14.276Z,0
2023-03-29T07:09:16.623Z,0
2023-03-29T07:10:16.296Z,0
2023-03-29T07:11:17.295Z,0
2023-03-29T07:12:18.294Z,0.07
2023-03-29T07:13:19.275Z,0.35
2023-03-29T07:14:20.315Z,0
2023-03-29T07:15:21.257Z,0
2023-03-29T07:16:22.288Z,0
2023-03-29T07:17:23.347Z,0
2023-03-29T07:18:24.340Z,0
2023-03-29T07:19:25.291Z,0
2023-03-29T07:20:26.276Z,0.38
2023-03-29T07:21:27.336Z,0.46
2023-03-29T07:22:28.259Z,0
2023-03-29T07:23:29.282Z,0
2023-03-29T07:24:30.290Z,0
2023-03-29T07:25:31.296Z,0
2023-03-29T07:26:32.325Z,0
2023-03-29T07:27:33.442Z,0
2023-03-29T07:28:34.303Z,0
2023-03-29T07:29:35.442Z,0
2023-03-29T07:30:36.295Z,0
2023-03-29T07:31:37.249Z,0
2023-03-29T07:32:38.326Z,0
2023-03-29T07:33:39.551Z,0.19
2023-03-29T07:34:40.344Z,0.14
2023-03-29T07:35:41.319Z,0.07
2023-03-29T07:36:42.354Z,0.18
2023-03-29T07:37:43.253Z,0.28
2023-03-29T07:38:44.256Z,0
2023-03-29T07:39:45.422Z,0
2023-03-29T07:40:46.493Z,0
2023-03-29T07:41:47.367Z,0.07
2023-03-29T07:42:48.435Z,0.15
2023-03-29T07:43:49.411Z,0.33
2023-03-29T07:44:50.392Z,0.23
2023-03-29T07:45:51.396Z,0
2023-03-29T07:46:52.286Z,0
2023-03-29T07:47:53.262Z,0
2023-03-29T07:48:54.232Z,0
2023-03-29T07:49:55.253Z,0
2023-03-29T07:50:56.311Z,0
2023-03-29T07:51:57.370Z,0
2023-03-29T07:52:58.284Z,0.16
2023-03-29T07:53:59.310Z,0
2023-03-29T07:55:00.272Z,0
2023-03-29T07:56:01.311Z,0.14
2023-03-29T07:57:02.425Z,0.33
2023-03-29T07:58:03.352Z,1.1
2023-03-29T07:59:04.330Z,0.22
2023-03-29T08:00:05.380Z,0.49
2023-03-29T08:01:06.671Z,0.26
2023-03-29T08:02:07.350Z,0.29
2023-03-29T08:03:08.412Z,0.05
2023-03-29T08:04:09.463Z,0.1
2023-03-29T08:05:10.638Z,0.48
2023-03-29T08:06:11.311Z,0.18
2023-03-29T08:07:12.331Z,0.18
2023-03-29T08:08:13.330Z,0.7
2023-03-29T08:09:14.309Z,0.09
2023-03-29T08:10:15.322Z,0.21
2023-03-29T08:11:16.556Z,0.84
2023-03-29T08:12:17.282Z,0.69
2023-03-29T08:13:18.384Z,0.19
2023-03-29T08:14:19.328Z,0
2023-03-29T08:15:20.313Z,0.1
2023-03-29T08:16:21.362Z,1.02
2023-03-29T08:17:22.324Z,0
2023-03-29T08:18:23.363Z,0.17
2023-03-29T08:19:24.337Z,0.49
2023-03-29T08:20:25.344Z,0.09
2023-03-29T08:21:26.285Z,0.28
2023-03-29T08:22:27.360Z,0.35
2023-03-29T08:23:28.376Z,0
2023-03-29T08:24:29.310Z,0.27
2023-03-29T08:25:30.341Z,0.68
2023-03-29T08:26:31.240Z,0.22
2023-03-29T08:27:32.405Z,0.7
2023-03-29T08:28:33.675Z,0.48
2023-03-29T08:29:34.335Z,0.22
2023-03-29T08:30:35.399Z,0.44
2023-03-29T08:31:36.464Z,0
2023-03-29T08:32:37.368Z,0.23
2023-03-29T08:33:38.336Z,0
2023-03-29T08:34:39.813Z,0.46
2023-03-29T08:35:41.346Z,0.65
2023-03-29T08:36:42.295Z,0.28
2023-03-29T08:37:43.356Z,0.48
2023-03-29T08:38:44.374Z,0.2
2023-03-29T08:39:45.321Z,0.37
2023-03-29T08:40:46.381Z,0.15
2023-03-29T08:41:47.244Z,0.27
2023-03-29T08:42:48.295Z,0.49
2023-03-29T08:43:49.318Z,1.16
2023-03-29T08:44:50.338Z,0.28
2023-03-29T08:45:51.375Z,0.15
2023-03-29T08:46:52.390Z,0.38
2023-03-29T08:47:53.465Z,0
2023-03-29T08:48:54.329Z,0.18
2023-03-29T08:49:55.455Z,0.28
2023-03-29T08:50:56.276Z,0.35
2023-03-29T08:51:57.436Z,0.2
2023-03-29T08:52:58.356Z,0.09
2023-03-29T08:53:59.299Z,0.67
2023-03-29T08:55:00.395Z,0.45
2023-03-29T08:56:01.375Z,0.96
2023-03-29T08:57:02.428Z,1.36
2023-03-29T08:58:03.356Z,0.78
2023-03-29T08:59:04.275Z,0.61
2023-03-29T09:00:05.344Z,0.36
2023-03-29T09:01:06.324Z,0
2023-03-29T09:02:07.307Z,0.06
2023-03-29T09:03:08.450Z,0.2
2023-03-29T09:04:09.551Z,0.25
2023-03-29T09:05:10.354Z,0.94
2023-03-29T09:06:11.315Z,0.84
2023-03-29T09:07:12.451Z,0.36
2023-03-29T09:08:13.356Z,0.87
2023-03-29T09:09:14.312Z,0.54
2023-03-29T09:10:15.321Z,0.6
2023-03-29T09:11:16.323Z,0.37
2023-03-29T09:12:17.334Z,1.65
2023-03-29T09:13:18.379Z,1.02
2023-03-29T09:14:19.360Z,0.69
2023-03-29T09:15:20.298Z,1
2023-03-29T09:16:21.411Z,1.13
2023-03-29T09:17:22.336Z,1.05
2023-03-29T09:18:23.498Z,1.05
2023-03-29T09:19:24.448Z,1.33
2023-03-29T09:20:25.456Z,0.53
2023-03-29T09:21:26.444Z,0.44
2023-03-29T09:22:27.338Z,0.6
2023-03-29T09:23:28.325Z,0.25
2023-03-29T09:24:29.333Z,0.86
2023-03-29T09:25:31.046Z,0.78
2023-03-29T09:26:31.435Z,0.69
2023-03-29T09:27:32.456Z,0.54
2023-03-29T09:28:33.359Z,0.55
2023-03-29T09:29:34.431Z,0.23
2023-03-29T09:30:35.414Z,1.18
2023-03-29T09:31:36.423Z,1.61
2023-03-29T09:32:37.370Z,0.78
2023-03-29T09:33:38.348Z,0.24
2023-03-29T09:34:39.412Z,0.28
2023-03-29T09:35:40.389Z,0.57
2023-03-29T09:36:41.357Z,0.41
2023-03-29T09:37:42.313Z,0.63
2023-03-29T09:38:43.292Z,1.21
2023-03-29T09:39:44.311Z,0.87
2023-03-29T09:40:45.337Z,1.58
2023-03-29T09:41:46.375Z,0.64
2023-03-29T09:42:47.406Z,0.66
2023-03-29T09:43:48.440Z,1.36
2023-03-29T09:44:49.457Z,0.76
2023-03-29T09:45:53.289Z,0.53
2023-03-29T09:46:54.510Z,0.67
2023-03-29T09:47:55.375Z,0.9
2023-03-29T09:48:56.375Z,1.22
2023-03-29T09:49:57.373Z,1.08
2023-03-29T09:50:58.310Z,0.88
2023-03-29T09:51:59.410Z,0.97
2023-03-29T09:53:00.315Z,0.64
2023-03-29T09:54:01.360Z,0.81
2023-03-29T09:55:02.486Z,0.65
2023-03-29T09:56:03.440Z,1
2023-03-29T09:57:04.426Z,0.69
2023-03-29T09:58:05.452Z,0.27
2023-03-29T09:59:06.348Z,0.65
2023-03-29T10:00:07.393Z,1.54
2023-03-29T10:01:08.408Z,0.49
2023-03-29T10:02:09.414Z,1.23
2023-03-29T10:03:10.900Z,0.8
2023-03-29T10:04:11.587Z,0.56
2023-03-29T10:05:12.552Z,0.18
2023-03-29T10:06:13.314Z,1.05
2023-03-29T10:07:14.372Z,0.49
2023-03-29T10:08:17.130Z,1.11
2023-03-29T10:09:16.383Z,1.07
2023-03-29T10:10:17.424Z,0.41
2023-03-29T10:11:18.341Z,0.38
2023-03-29T10:12:19.339Z,0.78
2023-03-29T10:13:20.419Z,0.68
2023-03-29T10:14:21.394Z,1.08
2023-03-29T10:15:29.510Z,1.02
2023-03-29T10:16:23.451Z,1.37
2023-03-29T10:17:24.505Z,1.05
2023-03-29T10:18:25.673Z,1.87
2023-03-29T10:19:26.402Z,0.71
2023-03-29T10:20:27.392Z,0.42
2023-03-29T10:21:28.356Z,0.86
2023-03-29T10:22:29.357Z,1.29
2023-03-29T10:23:30.395Z,0.3
2023-03-29T10:24:31.419Z,0.45
2023-03-29T10:25:32.369Z,0.27
2023-03-29T10:26:33.513Z,0.39
2023-03-29T10:27:34.285Z,0.11
2023-03-29T10:28:35.389Z,1.08
2023-03-29T10:29:36.356Z,0.96
2023-03-29T10:30:37.379Z,0.5
2023-03-29T10:31:38.512Z,0.68
2023-03-29T10:32:39.479Z,0.61
2023-03-29T10:33:40.435Z,0.21
2023-03-29T10:34:41.430Z,0.42
2023-03-29T10:35:42.385Z,0.75
2023-03-29T10:36:43.357Z,0.58
2023-03-29T10:37:44.321Z,0.49
2023-03-29T10:38:45.355Z,1.12
2023-03-29T10:39:46.378Z,0.32
2023-03-29T10:40:47.568Z,0.66
2023-03-29T10:41:48.432Z,0.7
2023-03-29T10:42:49.454Z,1.26
2023-03-29T10:43:50.475Z,1.12
2023-03-29T10:44:51.333Z,1.11
2023-03-29T10:45:52.482Z,0.86
2023-03-29T10:46:53.403Z,1.11
2023-03-29T10:47:54.392Z,0.82
2023-03-29T10:48:55.396Z,0.59
2023-03-29T10:49:57.237Z,1.11
2023-03-29T10:50:57.413Z,0.49
2023-03-29T10:51:58.374Z,0.95
2023-03-29T10:52:59.420Z,0.71
2023-03-29T10:54:00.397Z,0.38
2023-03-29T10:55:01.395Z,0.59
2023-03-29T10:56:02.542Z,1.11
2023-03-29T10:57:03.467Z,0.81
2023-03-29T10:58:04.468Z,0.68
2023-03-29T10:59:05.355Z,0.4
2023-03-29T11:00:06.482Z,0.23
2023-03-29T11:01:07.486Z,0.99
2023-03-29T11:02:08.420Z,0.92
2023-03-29T11:03:09.690Z,1.04
2023-03-29T11:04:10.478Z,2.02
2023-03-29T11:05:11.382Z,1.18
2023-03-29T11:06:12.485Z,0.74
2023-03-29T11:07:13.380Z,0.41
2023-03-29T11:08:14.493Z,0.63
2023-03-29T11:09:15.514Z,1.12
2023-03-29T11:10:16.480Z,1.21
2023-03-29T11:11:17.314Z,0.66
2023-03-29T11:12:18.512Z,0.8
2023-03-29T11:13:19.386Z,0.99
2023-03-29T11:14:20.392Z,1.16
2023-03-29T11:15:21.393Z,1.43
2023-03-29T11:16:22.897Z,0.89
2023-03-29T11:17:23.386Z,1.09
2023-03-29T11:18:24.353Z,1.06
2023-03-29T11:19:25.482Z,0.9
2023-03-29T11:20:26.518Z,1.4
2023-03-29T11:21:27.432Z,1.15
2023-03-29T11:22:28.353Z,0.56
2023-03-29T11:23:29.351Z,1.37
2023-03-29T11:24:30.353Z,0.56
2023-03-29T11:25:31.353Z,0.65
2023-03-29T11:26:32.432Z,0.25
2023-03-29T11:27:33.566Z,0.78
2023-03-29T11:28:34.338Z,0.97
2023-03-29T11:29:35.393Z,0.95
2023-03-29T11:30:36.394Z,0.24
2023-03-29T11:31:38.949Z,0.14
2023-03-29T11:32:38.396Z,1.03
2023-03-29T11:33:39.552Z,1.85
2023-03-29T11:34:40.459Z,0.34
2023-03-29T11:35:41.596Z,0.28
2023-03-29T11:36:42.536Z,0.34
2023-03-29T11:37:43.441Z,1.11
2023-03-29T11:38:45.347Z,1.08
2023-03-29T11:39:45.392Z,0.46
2023-03-29T11:40:46.398Z,0.23
2023-03-29T11:41:47.441Z,1.37
2023-03-29T11:42:48.359Z,0.21
2023-03-29T11:43:49.492Z,0.61
2023-03-29T11:44:51.667Z,0.97
2023-03-29T11:45:51.516Z,0.84
2023-03-29T11:46:52.505Z,0.34
2023-03-29T11:47:53.504Z,0.12
2023-03-29T11:48:54.393Z,0.73
2023-03-29T11:49:55.458Z,0.59
2023-03-29T11:50:56.518Z,0.5
2023-03-29T11:51:57.434Z,1.18
2023-03-29T11:52:58.412Z,1.84
2023-03-29T11:53:59.431Z,0.71
2023-03-29T11:55:01.363Z,0.36
2023-03-29T11:56:02.463Z,0.37
2023-03-29T11:57:03.579Z,0.77
2023-03-29T11:58:04.467Z,1.67
2023-03-29T11:59:05.511Z,1.37
2023-03-29T12:00:06.469Z,0.55
2023-03-29T12:01:07.501Z,1.47
2023-03-29T12:02:08.511Z,1.47
2023-03-29T12:03:09.488Z,0.49
2023-03-29T12:04:10.576Z,0.53
2023-03-29T12:05:11.395Z,1.07
2023-03-29T12:06:12.442Z,0.95
2023-03-29T12:07:13.619Z,1.32
2023-03-29T12:08:14.429Z,0.96
2023-03-29T12:09:16.772Z,1.19
2023-03-29T12:10:16.415Z,1.06
2023-03-29T12:11:17.417Z,1.45
2023-03-29T12:12:18.458Z,1.02
2023-03-29T12:13:19.392Z,0.23
2023-03-29T12:14:20.534Z,0.46
2023-03-29T12:15:21.452Z,1.87
2023-03-29T12:16:22.397Z,1.35
2023-03-29T12:17:23.457Z,1.34
2023-03-29T12:18:24.464Z,1.52
2023-03-29T12:19:25.512Z,1.01
2023-03-29T12:20:26.555Z,1.04
2023-03-29T12:21:27.579Z,0.84
2023-03-29T12:22:28.426Z,0.76
2023-03-29T12:23:29.430Z,0.98
2023-03-29T12:24:30.503Z,1.34
2023-03-29T12:25:31.570Z,1.16
2023-03-29T12:26:32.631Z,0.67
2023-03-29T12:27:33.507Z,1.02
2023-03-29T12:28:34.500Z,2.15
2023-03-29T12:29:35.554Z,1.19
2023-03-29T12:30:36.505Z,0.65
2023-03-29T12:31:37.533Z,1.55
2023-03-29T12:32:38.584Z,0.61
2023-03-29T12:33:39.383Z,0.59
2023-03-29T12:34:40.587Z,0.75
2023-03-29T12:35:41.451Z,1.23
2023-03-29T12:36:42.463Z,1.08
2023-03-29T12:37:43.554Z,0.99
2023-03-29T12:38:44.477Z,1.46
2023-03-29T12:39:45.518Z,1.04
2023-03-29T12:40:46.499Z,0.51
2023-03-29T12:41:47.506Z,0.52
2023-03-29T12:42:48.436Z,0.93
2023-03-29T12:43:49.637Z,0.99
2023-03-29T12:44:50.532Z,0.7
2023-03-29T12:45:51.608Z,0.92
2023-03-29T12:46:52.508Z,0.67
2023-03-29T12:47:53.591Z,0.53
2023-03-29T12:48:54.536Z,0.79
2023-03-29T12:49:55.536Z,1.06
2023-03-29T12:50:56.518Z,1.23
2023-03-29T12:51:57.547Z,1.42
2023-03-29T12:52:58.438Z,0.81
2023-03-29T12:53:59.458Z,1.16
2023-03-29T12:55:00.421Z,1.26
2023-03-29T12:56:01.739Z,1.25
2023-03-29T12:57:02.524Z,1.77
2023-03-29T12:58:03.637Z,1.04
2023-03-29T12:59:04.559Z,0.38
2023-03-29T13:00:05.458Z,0.38
2023-03-29T13:01:06.635Z,1.07
2023-03-29T13:02:07.545Z,0.72
2023-03-29T13:03:08.498Z,0.56
2023-03-29T13:04:09.527Z,0.85
2023-03-29T13:05:10.556Z,1.05
2023-03-29T13:06:11.579Z,0.8
2023-03-29T13:07:15.591Z,1.58
2023-03-29T13:08:16.594Z,0.44
2023-03-29T13:09:17.555Z,0.61
2023-03-29T13:10:18.595Z,1
2023-03-29T13:11:19.555Z,0.91
2023-03-29T13:12:20.436Z,0.75
2023-03-29T13:13:21.518Z,1.14
2023-03-29T13:14:22.575Z,0.91
2023-03-29T13:15:23.598Z,1.1
2023-03-29T13:16:24.533Z,0.96
2023-03-29T13:17:25.673Z,0.51
2023-03-29T13:18:26.535Z,0.9
2023-03-29T13:19:27.477Z,0.53
2023-03-29T13:20:28.464Z,0.6
2023-03-29T13:21:29.439Z,1.33
2023-03-29T13:22:30.595Z,0.97
2023-03-29T13:23:31.523Z,1.16
2023-03-29T13:24:32.521Z,0.39
2023-03-29T13:25:33.559Z,0.44
2023-03-29T13:26:34.495Z,0.56
2023-03-29T13:27:35.417Z,0.93
2023-03-29T13:28:36.416Z,0.85
2023-03-29T13:29:37.434Z,1.33
2023-03-29T13:30:38.506Z,0.65
2023-03-29T13:31:39.647Z,0.52
2023-03-29T13:32:40.528Z,0.53
2023-03-29T13:33:41.554Z,1.73
2023-03-29T13:34:42.555Z,2.14
2023-03-29T13:35:43.484Z,1.67
2023-03-29T13:36:44.509Z,1
2023-03-29T13:37:45.524Z,1.49
2023-03-29T13:38:46.600Z,1.52
2023-03-29T13:39:47.611Z,2.53
2023-03-29T13:40:48.427Z,1.25
2023-03-29T13:41:49.642Z,2.27
2023-03-29T13:42:50.508Z,1.46
2023-03-29T13:43:51.603Z,0.68
2023-03-29T13:44:52.605Z,0.64
2023-03-29T13:45:53.538Z,1.5
2023-03-29T13:46:54.565Z,1.49
2023-03-29T13:48:04.929Z,0.99
2023-03-29T13:48:57.474Z,0.74
2023-03-29T13:49:58.370Z,0.41
2023-03-29T13:50:59.383Z,1.49
2023-03-29T13:52:00.441Z,1.58
2023-03-29T13:53:01.558Z,1.97
2023-03-29T13:54:02.624Z,2.67
2023-03-29T13:55:03.469Z,1.97
2023-03-29T13:56:04.608Z,2.2
2023-03-29T13:57:05.498Z,1.47
2023-03-29T13:58:06.560Z,1.15
2023-03-29T13:59:07.534Z,2.08
2023-03-29T14:00:08.590Z,1.81
2023-03-29T14:01:09.465Z,2.4
2023-03-29T14:02:10.465Z,1.44
2023-03-29T14:03:11.532Z,2.08
2023-03-29T14:04:12.453Z,1.36
2023-03-29T14:05:13.504Z,1.12
2023-03-29T14:06:14.520Z,2.3
2023-03-29T14:07:15.450Z,2.11
2023-03-29T14:08:16.462Z,1.7
2023-03-29T14:09:17.385Z,1.38
2023-03-29T14:10:18.470Z,1.06
2023-03-29T14:11:19.445Z,1.47
2023-03-29T14:12:20.478Z,1.27
2023-03-29T14:13:21.540Z,1.02
2023-03-29T14:14:22.561Z,1.15
2023-03-29T14:15:23.583Z,1.58
2023-03-29T14:16:24.560Z,1.6
2023-03-29T14:17:25.451Z,1.87
2023-03-29T14:18:26.476Z,1.15
2023-03-29T14:19:27.603Z,1.28